Time;durP1;ratioP1;P1;durP2;ratioP2;P2;SDS_P1;SDS_P2;PMS_P1;PMS_P2;Temp;Humidity;BMP_temperature;BMP_pressure;BME280_temperature;BME280_humidity;BME280_pressure;Samples;Min_cycle;Max_cycle;Signal;HPM_P1;HPM_P2
2021/12/08 00:00:23;;;;;;;2.55;2.35;;;;;;;;;;5034814;28;20196;-68
2021/12/08 00:02:50;;;;;;;6.28;3.03;;;;;;;;;;5034684;28;20291;-68
2021/12/08 00:05:18;;;;;;;7.13;3.15;;;;;;;;;;5034663;28;20288;-68
2021/12/08 00:07:46;;;;;;;6.57;2.65;;;;;;;;;;5034828;28;20236;-68
2021/12/08 00:10:28;;;;;;;3.63;2.40;;;;;;;;;;5034243;28;20225;-68
2021/12/08 00:13:02;;;;;;;5.05;2.50;;;;;;;;;;5034340;28;20194;-68
2021/12/08 00:15:30;;;;;;;4.25;2.63;;;;;;;;;;5035669;28;20250;-69
2021/12/08 00:17:57;;;;;;;8.07;2.50;;;;;;;;;;5035142;28;20260;-68
2021/12/08 00:20:27;;;;;;;9.63;2.22;;;;;;;;;;5034477;28;20288;-69
2021/12/08 00:22:54;;;;;;;7.55;3.05;;;;;;;;;;5034339;28;20229;-69
2021/12/08 00:25:23;;;;;;;3.60;2.78;;;;;;;;;;5034172;28;20318;-69
2021/12/08 00:27:50;;;;;;;5.47;2.50;;;;;;;;;;5034282;28;20287;-68
2021/12/08 00:30:18;;;;;;;8.18;3.10;;;;;;;;;;5034343;28;20308;-69
2021/12/08 00:32:46;;;;;;;4.22;2.97;;;;;;;;;;5034598;28;20290;-69
2021/12/08 00:35:13;;;;;;;3.15;2.13;;;;;;;;;;5033624;28;20304;-69
2021/12/08 00:37:41;;;;;;;8.43;3.38;;;;;;;;;;5034989;28;20224;-69
2021/12/08 00:40:09;;;;;;;2.60;1.95;;;;;;;;;;5034380;28;20287;-69
2021/12/08 00:42:38;;;;;;;5.03;2.58;;;;;;;;;;5034813;28;20625;-69
2021/12/08 00:45:05;;;;;;;6.40;2.80;;;;;;;;;;5034655;28;20591;-68
2021/12/08 00:47:33;;;;;;;9.18;2.35;;;;;;;;;;5034015;28;20618;-69
2021/12/08 00:50:00;;;;;;;3.28;2.42;;;;;;;;;;5033915;28;20647;-67
2021/12/08 00:52:29;;;;;;;3.95;3.00;;;;;;;;;;5034333;28;20280;-68
2021/12/08 00:54:56;;;;;;;2.95;2.63;;;;;;;;;;5034224;28;20191;-67
2021/12/08 00:57:24;;;;;;;4.03;2.95;;;;;;;;;;5033557;28;20284;-67
2021/12/08 00:59:52;;;;;;;2.00;1.90;;;;;;;;;;5033662;28;20239;-68
2021/12/08 01:02:20;;;;;;;5.20;2.53;;;;;;;;;;5033714;28;20555;-67
2021/12/08 01:04:47;;;;;;;6.20;3.50;;;;;;;;;;5033588;28;20225;-67
2021/12/08 01:07:14;;;;;;;3.85;2.13;;;;;;;;;;5034313;28;20234;-68
2021/12/08 01:09:41;;;;;;;4.35;2.92;;;;;;;;;;5033483;28;20227;-67
2021/12/08 01:12:09;;;;;;;5.32;3.08;;;;;;;;;;5033624;28;20255;-69
2021/12/08 01:14:36;;;;;;;4.50;2.63;;;;;;;;;;5033496;28;20281;-67
2021/12/08 01:17:06;;;;;;;2.40;1.98;;;;;;;;;;5033228;28;20744;-68
2021/12/08 01:19:33;;;;;;;2.97;2.17;;;;;;;;;;5033123;28;20290;-68
2021/12/08 01:22:00;;;;;;;6.13;2.92;;;;;;;;;;5033195;28;20288;-68
2021/12/08 01:24:28;;;;;;;2.25;1.83;;;;;;;;;;5033251;28;20223;-68
2021/12/08 01:26:55;;;;;;;3.35;2.17;;;;;;;;;;5033192;28;20287;-67
2021/12/08 01:29:23;;;;;;;3.90;2.05;;;;;;;;;;5033471;28;20220;-67
2021/12/08 01:31:50;;;;;;;2.60;1.92;;;;;;;;;;5033315;28;20283;-67
2021/12/08 01:34:18;;;;;;;3.22;2.45;;;;;;;;;;5033275;28;20284;-67
2021/12/08 01:36:46;;;;;;;5.78;2.40;;;;;;;;;;5034025;28;20316;-67
2021/12/08 01:39:13;;;;;;;7.55;2.58;;;;;;;;;;5033015;28;20292;-67
2021/12/08 01:41:40;;;;;;;3.20;1.98;;;;;;;;;;5033069;28;20289;-67
2021/12/08 01:46:54;;;;;;;8.55;2.42;;;;;;;;;;5033383;28;20221;-68
2021/12/08 01:49:22;;;;;;;5.10;2.47;;;;;;;;;;5032998;28;20320;-68
2021/12/08 01:51:50;;;;;;;6.55;2.40;;;;;;;;;;5033473;28;20260;-67
2021/12/08 01:54:17;;;;;;;3.88;2.00;;;;;;;;;;5032815;28;20204;-67
2021/12/08 01:56:45;;;;;;;3.63;2.40;;;;;;;;;;5033128;28;20816;-67
2021/12/08 01:59:13;;;;;;;4.88;2.70;;;;;;;;;;5033677;28;20224;-67
2021/12/08 02:01:42;;;;;;;3.15;2.50;;;;;;;;;;5033112;28;20250;-67
2021/12/08 02:04:10;;;;;;;4.55;2.60;;;;;;;;;;5033058;28;20297;-68
2021/12/08 02:06:39;;;;;;;3.95;2.75;;;;;;;;;;5034445;28;20194;-68
2021/12/08 02:09:09;;;;;;;3.45;2.83;;;;;;;;;;5036902;28;20291;-68
2021/12/08 02:11:37;;;;;;;2.75;2.55;;;;;;;;;;5036829;28;20201;-67
2021/12/08 02:14:04;;;;;;;4.15;2.92;;;;;;;;;;5037080;28;20624;-68
2021/12/08 02:16:32;;;;;;;8.02;3.00;;;;;;;;;;5037034;28;20295;-68
2021/12/08 02:19:00;;;;;;;2.90;2.53;;;;;;;;;;5036913;28;20618;-67
2021/12/08 02:21:30;;;;;;;2.70;2.50;;;;;;;;;;5036563;28;20291;-67
2021/12/08 02:23:58;;;;;;;3.33;2.70;;;;;;;;;;5036684;28;20198;-69
2021/12/08 02:26:25;;;;;;;3.40;3.10;;;;;;;;;;5036745;28;20282;-67
2021/12/08 02:28:53;;;;;;;2.97;2.50;;;;;;;;;;5036673;28;20288;-68
2021/12/08 02:31:30;;;;;;;4.90;3.97;;;;;;;;;;5036867;28;20231;-68
2021/12/08 02:47:53;;;;;;;3.47;2.45;;;;;;;;;;5036298;28;20232;-68
2021/12/08 02:50:21;;;;;;;3.75;2.80;;;;;;;;;;5035994;28;20258;-68
2021/12/08 02:52:49;;;;;;;8.45;4.32;;;;;;;;;;5036381;28;20287;-68
2021/12/08 02:55:17;;;;;;;2.65;2.45;;;;;;;;;;5035886;28;20237;-68
2021/12/08 02:57:44;;;;;;;2.30;2.10;;;;;;;;;;5036055;28;20202;-68
2021/12/08 03:00:13;;;;;;;2.97;2.30;;;;;;;;;;5035822;28;20290;-67
2021/12/08 03:02:40;;;;;;;4.22;2.55;;;;;;;;;;5036061;28;20200;-68
2021/12/08 03:05:08;;;;;;;4.20;2.90;;;;;;;;;;5036052;28;20291;-68
2021/12/08 03:07:37;;;;;;;2.25;2.15;;;;;;;;;;5035591;28;20283;-68
2021/12/08 03:10:07;;;;;;;2.88;2.50;;;;;;;;;;5035740;28;20264;-68
2021/12/08 03:12:35;;;;;;;3.53;3.10;;;;;;;;;;5035978;28;20211;-68
2021/12/08 03:15:02;;;;;;;2.38;2.17;;;;;;;;;;5035797;28;20197;-68
2021/12/08 03:17:29;;;;;;;2.22;2.03;;;;;;;;;;5034722;28;20248;-68
2021/12/08 03:19:56;;;;;;;4.05;2.55;;;;;;;;;;5035234;28;20645;-68
2021/12/08 03:22:24;;;;;;;2.78;2.20;;;;;;;;;;5035381;28;20238;-68
2021/12/08 03:24:52;;;;;;;5.00;2.55;;;;;;;;;;5035786;28;20235;-68
2021/12/08 03:27:30;;;;;;;2.55;2.30;;;;;;;;;;5035642;28;20192;-68
2021/12/08 03:30:00;;;;;;;1.95;1.85;;;;;;;;;;5035407;28;20205;-68
2021/12/08 03:32:34;;;;;;;2.20;1.95;;;;;;;;;;5036404;28;20191;-69
2021/12/08 03:35:01;;;;;;;2.03;1.92;;;;;;;;;;5035072;28;20639;-68
2021/12/08 03:37:29;;;;;;;1.90;1.80;;;;;;;;;;5035597;28;20235;-68
2021/12/08 03:39:57;;;;;;;2.35;2.25;;;;;;;;;;5035310;28;20296;-68
2021/12/08 03:42:28;;;;;;;1.92;1.83;;;;;;;;;;5035298;28;20280;-68
2021/12/08 03:45:00;;;;;;;2.00;1.90;;;;;;;;;;5035269;28;20674;-68
2021/12/08 03:47:29;;;;;;;5.05;2.53;;;;;;;;;;5035833;28;20196;-68
2021/12/08 03:49:57;;;;;;;2.03;1.92;;;;;;;;;;5034880;28;20228;-68
2021/12/08 03:52:25;;;;;;;2.20;2.00;;;;;;;;;;5035037;28;20199;-68
2021/12/08 03:54:52;;;;;;;2.35;2.15;;;;;;;;;;5034955;28;20199;-68
2021/12/08 03:57:20;;;;;;;2.30;2.10;;;;;;;;;;5035245;28;20290;-68
2021/12/08 03:59:48;;;;;;;4.50;2.70;;;;;;;;;;5034628;28;20244;-68
2021/12/08 04:02:15;;;;;;;2.20;2.10;;;;;;;;;;5034936;28;20237;-68
2021/12/08 04:04:46;;;;;;;2.90;2.70;;;;;;;;;;5034940;28;20235;-68
2021/12/08 04:07:15;;;;;;;2.92;2.20;;;;;;;;;;5034602;28;20201;-68
2021/12/08 04:09:44;;;;;;;3.17;2.90;;;;;;;;;;5034619;28;20675;-68
2021/12/08 04:12:14;;;;;;;2.78;2.58;;;;;;;;;;5034871;28;20248;-68
2021/12/08 04:14:46;;;;;;;4.03;2.08;;;;;;;;;;5034733;28;20210;-68
2021/12/08 04:17:17;;;;;;;2.70;2.50;;;;;;;;;;5034908;28;20195;-68
2021/12/08 04:19:46;;;;;;;3.22;2.85;;;;;;;;;;5035002;28;20285;-68
2021/12/08 04:22:15;;;;;;;2.55;2.28;;;;;;;;;;5034578;28;20635;-68
2021/12/08 04:24:44;;;;;;;2.75;2.42;;;;;;;;;;5034519;28;20295;-68
2021/12/08 04:27:13;;;;;;;4.70;2.60;;;;;;;;;;5034008;28;20297;-68
2021/12/08 04:29:43;;;;;;;3.28;2.50;;;;;;;;;;5033985;28;20285;-68
2021/12/08 04:32:14;;;;;;;2.78;2.58;;;;;;;;;;5034296;28;20309;-68
2021/12/08 04:34:45;;;;;;;2.38;2.17;;;;;;;;;;5034825;28;20270;-68
2021/12/08 04:37:16;;;;;;;3.10;2.90;;;;;;;;;;5033935;28;20274;-68
2021/12/08 04:39:56;;;;;;;2.78;2.58;;;;;;;;;;5034140;28;20182;-68
2021/12/08 04:42:35;;;;;;;3.05;2.85;;;;;;;;;;5034766;28;20190;-68
2021/12/08 04:45:10;;;;;;;3.50;2.70;;;;;;;;;;5034709;28;20531;-68
2021/12/08 04:47:51;;;;;;;2.83;2.63;;;;;;;;;;5034679;28;20196;-68
2021/12/08 04:53:11;;;;;;;4.47;3.40;;;;;;;;;;5033128;28;20237;-68
2021/12/08 05:01:24;;;;;;;2.90;2.60;;;;;;;;;;5033316;28;20277;-67
2021/12/08 05:04:12;;;;;;;3.80;2.75;;;;;;;;;;5033686;28;20270;-67
2021/12/08 05:06:51;;;;;;;3.47;3.10;;;;;;;;;;5034285;28;20203;-68
2021/12/08 05:09:21;;;;;;;2.80;2.60;;;;;;;;;;5033505;28;20187;-67
2021/12/08 05:11:50;;;;;;;5.35;3.72;;;;;;;;;;5033359;28;20232;-67
2021/12/08 05:14:22;;;;;;;3.65;2.42;;;;;;;;;;5033733;28;20229;-70
2021/12/08 05:16:52;;;;;;;3.28;2.90;;;;;;;;;;5033724;28;20243;-67
2021/12/08 05:19:21;;;;;;;3.03;2.83;;;;;;;;;;5033632;28;20696;-66
2021/12/08 05:21:52;;;;;;;4.72;3.35;;;;;;;;;;5033307;28;20289;-68
2021/12/08 05:24:22;;;;;;;4.43;2.85;;;;;;;;;;5033860;28;20266;-68
2021/12/08 05:26:52;;;;;;;4.63;3.10;;;;;;;;;;5032867;28;20244;-68
2021/12/08 05:29:21;;;;;;;3.67;3.15;;;;;;;;;;5031936;28;20285;-68
2021/12/08 05:31:49;;;;;;;5.78;3.95;;;;;;;;;;5033575;28;20250;-68
2021/12/08 05:34:17;;;;;;;4.57;3.30;;;;;;;;;;5033474;28;20197;-68
2021/12/08 05:36:44;;;;;;;5.47;3.40;;;;;;;;;;5033436;28;20313;-68
2021/12/08 05:39:19;;;;;;;5.00;3.45;;;;;;;;;;5033159;28;20240;-68
2021/12/08 05:41:47;;;;;;;5.93;3.30;;;;;;;;;;5032934;28;20281;-68
2021/12/08 05:44:14;;;;;;;5.45;3.60;;;;;;;;;;5033004;28;20195;-68
2021/12/08 05:46:43;;;;;;;3.38;2.67;;;;;;;;;;5033230;28;20199;-68
2021/12/08 05:49:12;;;;;;;4.93;3.38;;;;;;;;;;5033780;28;20208;-69
2021/12/08 05:51:39;;;;;;;4.65;3.30;;;;;;;;;;5032960;28;20214;-68
2021/12/08 05:54:08;;;;;;;5.47;3.47;;;;;;;;;;5032819;28;20293;-68
2021/12/08 05:56:36;;;;;;;3.85;3.35;;;;;;;;;;5032779;28;20288;-68
2021/12/08 05:59:05;;;;;;;4.70;3.88;;;;;;;;;;5033230;28;20197;-68
2021/12/08 06:01:34;;;;;;;4.65;4.22;;;;;;;;;;5033581;28;20233;-68
2021/12/08 06:04:02;;;;;;;4.18;3.45;;;;;;;;;;5032766;28;20197;-68
2021/12/08 06:06:30;;;;;;;5.70;3.75;;;;;;;;;;5033297;28;20287;-69
2021/12/08 06:08:57;;;;;;;6.03;3.42;;;;;;;;;;5032829;28;20288;-68
2021/12/08 06:11:26;;;;;;;4.03;3.33;;;;;;;;;;5033039;28;20249;-68
2021/12/08 06:13:59;;;;;;;3.70;3.40;;;;;;;;;;5032746;28;20292;-68
2021/12/08 06:16:27;;;;;;;6.20;3.50;;;;;;;;;;5032918;28;20277;-68
2021/12/08 06:18:54;;;;;;;4.32;3.50;;;;;;;;;;5033170;28;20237;-68
2021/12/08 06:21:28;;;;;;;5.80;3.85;;;;;;;;;;5033037;28;20237;-68
2021/12/08 06:23:56;;;;;;;4.85;3.72;;;;;;;;;;5033892;28;20252;-68
2021/12/08 06:26:24;;;;;;;5.80;4.43;;;;;;;;;;5032656;28;20252;-68
2021/12/08 06:28:52;;;;;;;7.45;5.40;;;;;;;;;;5032851;28;20624;-68
2021/12/08 06:31:21;;;;;;;11.70;4.30;;;;;;;;;;5032994;28;20219;-71
2021/12/08 06:33:49;;;;;;;4.60;4.18;;;;;;;;;;5033153;28;20305;-69
2021/12/08 06:36:17;;;;;;;7.57;4.15;;;;;;;;;;5032967;28;20325;-69
2021/12/08 06:38:45;;;;;;;7.00;5.07;;;;;;;;;;5032566;28;20200;-69
2021/12/08 06:41:14;;;;;;;4.45;4.05;;;;;;;;;;5032848;28;20244;-69
2021/12/08 06:43:44;;;;;;;7.20;3.83;;;;;;;;;;5033593;28;20603;-69
2021/12/08 06:46:13;;;;;;;4.50;3.95;;;;;;;;;;5033614;28;20228;-69
2021/12/08 06:48:43;;;;;;;16.05;7.03;;;;;;;;;;5032713;28;20203;-69
2021/12/08 06:51:13;;;;;;;6.60;4.55;;;;;;;;;;5033255;28;20240;-69
2021/12/08 06:53:41;;;;;;;15.80;5.53;;;;;;;;;;5035226;28;20202;-69
2021/12/08 06:56:10;;;;;;;7.03;4.75;;;;;;;;;;5036302;28;20629;-69
2021/12/08 06:58:38;;;;;;;8.82;5.00;;;;;;;;;;5035847;28;20240;-69
2021/12/08 07:01:15;;;;;;;6.70;5.97;;;;;;;;;;5036019;28;20256;-69
2021/12/08 07:03:51;;;;;;;6.05;5.43;;;;;;;;;;5036691;28;20184;-69
2021/12/08 07:06:41;;;;;;;5.28;4.82;;;;;;;;;;5035689;28;20654;-69
2021/12/08 07:09:15;;;;;;;11.98;5.25;;;;;;;;;;5035780;28;20197;-70
2021/12/08 07:11:48;;;;;;;6.32;5.20;;;;;;;;;;5036334;28;20670;-70
2021/12/08 07:14:15;;;;;;;7.07;6.13;;;;;;;;;;5036071;28;20224;-69
2021/12/08 07:16:47;;;;;;;7.28;5.15;;;;;;;;;;5035602;28;20288;-69
2021/12/08 07:19:26;;;;;;;7.20;5.15;;;;;;;;;;5035643;28;20237;-69
2021/12/08 07:21:56;;;;;;;10.95;5.35;;;;;;;;;;5035590;28;20240;-70
2021/12/08 07:24:24;;;;;;;5.82;5.10;;;;;;;;;;5035413;28;20291;-69
2021/12/08 07:26:54;;;;;;;5.70;4.50;;;;;;;;;;5035837;28;20228;-70
2021/12/08 07:29:23;;;;;;;9.68;4.88;;;;;;;;;;5036405;28;20599;-69
2021/12/08 07:31:52;;;;;;;4.90;4.45;;;;;;;;;;5035702;28;20311;-69
2021/12/08 07:34:22;;;;;;;4.95;4.20;;;;;;;;;;5035707;28;20197;-70
2021/12/08 07:36:52;;;;;;;6.13;4.82;;;;;;;;;;5035547;28;20319;-69
2021/12/08 07:39:20;;;;;;;14.02;4.75;;;;;;;;;;5035578;28;20196;-70
2021/12/08 07:41:52;;;;;;;6.88;4.50;;;;;;;;;;5035286;28;20704;-70
2021/12/08 07:44:19;;;;;;;6.75;4.78;;;;;;;;;;5035757;28;20272;-69
2021/12/08 07:46:48;;;;;;;7.47;4.88;;;;;;;;;;5035477;28;20213;-69
2021/12/08 07:49:18;;;;;;;10.88;4.30;;;;;;;;;;5035437;28;20232;-69
2021/12/08 07:51:48;;;;;;;9.00;5.38;;;;;;;;;;5035699;28;20313;-69
2021/12/08 07:54:16;;;;;;;11.70;5.65;;;;;;;;;;5035641;28;20225;-68
2021/12/08 07:56:45;;;;;;;6.15;4.55;;;;;;;;;;5034951;28;20242;-68
2021/12/08 07:59:13;;;;;;;6.60;4.85;;;;;;;;;;5035813;28;20550;-70
2021/12/08 08:01:43;;;;;;;8.70;4.63;;;;;;;;;;5035203;28;20234;-69
2021/12/08 08:04:11;;;;;;;5.45;4.90;;;;;;;;;;5033968;28;20289;-68
2021/12/08 08:06:40;;;;;;;9.40;5.43;;;;;;;;;;5035054;28;20235;-69
2021/12/08 08:09:10;;;;;;;9.68;4.60;;;;;;;;;;5035099;28;20292;-68
2021/12/08 08:11:41;;;;;;;5.80;4.05;;;;;;;;;;5035071;28;20280;-69
2021/12/08 08:14:10;;;;;;;8.35;4.38;;;;;;;;;;5035204;28;20186;-68
2021/12/08 08:16:38;;;;;;;6.00;5.10;;;;;;;;;;5034775;28;20201;-68
2021/12/08 08:19:10;;;;;;;6.70;5.13;;;;;;;;;;5034946;28;20247;-68
2021/12/08 08:21:39;;;;;;;6.53;4.97;;;;;;;;;;5035278;28;20196;-68
2021/12/08 08:24:08;;;;;;;8.30;5.18;;;;;;;;;;5034774;28;20197;-68
2021/12/08 08:26:37;;;;;;;8.40;5.63;;;;;;;;;;5034774;28;20248;-69
2021/12/08 08:29:05;;;;;;;11.93;5.68;;;;;;;;;;5034643;28;20210;-68
2021/12/08 08:31:34;;;;;;;9.63;5.35;;;;;;;;;;5034362;28;20254;-68
2021/12/08 08:34:06;;;;;;;7.82;4.90;;;;;;;;;;5034043;28;20280;-68
2021/12/08 08:36:35;;;;;;;9.20;5.72;;;;;;;;;;5034396;28;20315;-68
2021/12/08 08:39:05;;;;;;;10.15;4.97;;;;;;;;;;5034125;28;20288;-69
2021/12/08 08:41:35;;;;;;;8.15;5.35;;;;;;;;;;5034418;28;20221;-68
2021/12/08 08:44:06;;;;;;;7.22;4.93;;;;;;;;;;5034530;28;20186;-68
2021/12/08 08:46:36;;;;;;;7.30;4.60;;;;;;;;;;5034237;28;20216;-69
2021/12/08 08:49:05;;;;;;;6.10;4.63;;;;;;;;;;5034183;28;20228;-68
2021/12/08 08:51:34;;;;;;;7.70;4.85;;;;;;;;;;5034208;28;20304;-68
2021/12/08 08:54:04;;;;;;;4.45;4.00;;;;;;;;;;5034431;28;20244;-68
2021/12/08 08:56:32;;;;;;;6.45;4.70;;;;;;;;;;5034089;28;20277;-69
2021/12/08 08:59:17;;;;;;;13.15;5.50;;;;;;;;;;5034045;28;20242;-68
2021/12/08 09:01:45;;;;;;;9.32;4.82;;;;;;;;;;5034915;28;20247;-68
2021/12/08 09:04:15;;;;;;;8.93;5.05;;;;;;;;;;5033619;28;20245;-69
2021/12/08 09:06:44;;;;;;;6.18;5.57;;;;;;;;;;5033742;28;20233;-69
2021/12/08 09:09:14;;;;;;;7.43;5.78;;;;;;;;;;5033814;28;20680;-68
2021/12/08 09:11:43;;;;;;;9.68;5.95;;;;;;;;;;5033644;28;20291;-68
2021/12/08 09:14:20;;;;;;;12.52;6.13;;;;;;;;;;5033918;28;20248;-68
2021/12/08 09:16:48;;;;;;;8.40;5.07;;;;;;;;;;5033487;28;20277;-69
2021/12/08 09:19:17;;;;;;;9.20;5.60;;;;;;;;;;5034268;28;20721;-69
2021/12/08 09:21:49;;;;;;;20.20;6.32;;;;;;;;;;5033255;28;20201;-68
2021/12/08 09:24:20;;;;;;;8.00;5.40;;;;;;;;;;5034006;28;20216;-68
2021/12/08 09:26:50;;;;;;;10.80;5.30;;;;;;;;;;5033879;28;20181;-68
2021/12/08 09:29:20;;;;;;;10.27;5.20;;;;;;;;;;5033488;28;20291;-68
2021/12/08 09:31:49;;;;;;;9.05;5.93;;;;;;;;;;5033316;28;20300;-68
2021/12/08 09:34:20;;;;;;;14.20;6.57;;;;;;;;;;5033292;28;20654;-68
2021/12/08 09:36:49;;;;;;;12.55;5.82;;;;;;;;;;5033768;28;20239;-69
2021/12/08 09:39:21;;;;;;;8.80;6.13;;;;;;;;;;5033867;28;20240;-69
2021/12/08 09:41:49;;;;;;;9.73;4.70;;;;;;;;;;5033688;28;20267;-69
2021/12/08 09:44:20;;;;;;;10.18;4.82;;;;;;;;;;5033037;28;20290;-69
2021/12/08 09:46:49;;;;;;;12.23;5.53;;;;;;;;;;5033301;28;20221;-69
2021/12/08 09:49:28;;;;;;;7.18;5.65;;;;;;;;;;5032956;28;20204;-69
2021/12/08 09:51:57;;;;;;;9.52;5.85;;;;;;;;;;5033459;28;20285;-68
2021/12/08 09:54:24;;;;;;;7.20;5.93;;;;;;;;;;5033246;28;20228;-69
2021/12/08 09:56:53;;;;;;;11.38;6.50;;;;;;;;;;5033178;28;20204;-68
2021/12/08 09:59:21;;;;;;;11.65;6.10;;;;;;;;;;5033202;28;20199;-69
2021/12/08 10:01:51;;;;;;;9.45;6.63;;;;;;;;;;5033337;28;20229;-69
2021/12/08 10:04:19;;;;;;;10.70;5.80;;;;;;;;;;5033232;28;20186;-68
2021/12/08 10:06:49;;;;;;;8.95;5.95;;;;;;;;;;5033416;28;20240;-69
2021/12/08 10:09:17;;;;;;;10.10;5.80;;;;;;;;;;5034155;28;20209;-69
2021/12/08 10:11:44;;;;;;;7.13;4.45;;;;;;;;;;5033003;28;20232;-69
2021/12/08 10:14:11;;;;;;;10.52;6.20;;;;;;;;;;5032943;28;20282;-69
2021/12/08 10:16:39;;;;;;;11.45;4.75;;;;;;;;;;5033360;28;20198;-69
2021/12/08 10:19:08;;;;;;;8.73;6.03;;;;;;;;;;5033209;28;20281;-69
2021/12/08 10:21:36;;;;;;;7.20;5.47;;;;;;;;;;5033009;28;20228;-68
2021/12/08 10:24:13;;;;;;;11.43;5.85;;;;;;;;;;5033484;28;20614;-68
2021/12/08 10:26:40;;;;;;;10.57;5.30;;;;;;;;;;5033325;28;20218;-68
2021/12/08 10:29:08;;;;;;;6.78;5.00;;;;;;;;;;5036595;28;20281;-68
2021/12/08 10:31:36;;;;;;;83.88;29.55;;;;;;;;;;5036774;28;20205;-69
2021/12/08 10:34:09;;;;;;;12.40;6.85;;;;;;;;;;5037620;28;20265;-68
2021/12/08 10:36:46;;;;;;;12.43;6.10;;;;;;;;;;5036719;28;20234;-68
2021/12/08 10:39:19;;;;;;;10.05;5.63;;;;;;;;;;5036738;28;20195;-69
2021/12/08 10:41:52;;;;;;;7.32;3.90;;;;;;;;;;5036635;28;20539;-69
2021/12/08 10:44:21;;;;;;;9.27;4.75;;;;;;;;;;5036137;28;20273;-69
2021/12/08 10:46:51;;;;;;;9.85;4.78;;;;;;;;;;5036593;28;20198;-69
2021/12/08 10:49:24;;;;;;;11.53;5.03;;;;;;;;;;5036056;28;20213;-69
2021/12/08 10:54:38;;;;;;;4.78;3.65;;;;;;;;;;5035995;28;20229;-69
2021/12/08 10:57:29;;;;;;;5.72;4.40;;;;;;;;;;5036204;28;20645;-69
2021/12/08 10:59:58;;;;;;;4.35;3.65;;;;;;;;;;5034440;28;20199;-69
2021/12/08 11:02:41;;;;;;;14.40;7.15;;;;;;;;;;5035813;28;20693;-69
2021/12/08 11:05:20;;;;;;;11.05;4.38;;;;;;;;;;5035663;28;20754;-69
2021/12/08 11:07:58;;;;;;;8.75;4.20;;;;;;;;;;5035978;28;20269;-69
2021/12/08 11:10:25;;;;;;;6.72;4.57;;;;;;;;;;5036009;28;20671;-69
2021/12/08 11:12:55;;;;;;;5.25;4.22;;;;;;;;;;5035648;28;20313;-69
2021/12/08 11:15:23;;;;;;;7.35;4.80;;;;;;;;;;5035768;28;20252;-69
2021/12/08 11:17:51;;;;;;;7.57;4.43;;;;;;;;;;5035355;28;20206;-68
2021/12/08 11:20:19;;;;;;;6.78;4.85;;;;;;;;;;5035428;28;20229;-69
2021/12/08 11:22:59;;;;;;;10.00;5.00;;;;;;;;;;5035804;28;20420;-69
2021/12/08 11:25:34;;;;;;;10.80;4.33;;;;;;;;;;5035596;28;20241;-69
2021/12/08 11:28:17;;;;;;;7.60;4.40;;;;;;;;;;5035607;28;20930;-69
2021/12/08 11:30:44;;;;;;;8.75;4.25;;;;;;;;;;5035454;28;20270;-69
2021/12/08 11:33:13;;;;;;;7.57;4.00;;;;;;;;;;5035532;28;20321;-69
2021/12/08 11:35:40;;;;;;;6.60;4.88;;;;;;;;;;5035554;28;20486;-69
2021/12/08 11:38:08;;;;;;;12.40;4.30;;;;;;;;;;5034959;28;20195;-69
2021/12/08 11:40:37;;;;;;;7.90;4.28;;;;;;;;;;5034510;28;20476;-69
2021/12/08 11:43:04;;;;;;;10.00;5.00;;;;;;;;;;5035072;28;20242;-69
2021/12/08 11:45:39;;;;;;;10.83;5.70;;;;;;;;;;5034957;28;20202;-69
2021/12/08 11:48:21;;;;;;;12.85;5.22;;;;;;;;;;5035553;28;20779;-69
2021/12/08 11:50:48;;;;;;;8.18;5.00;;;;;;;;;;5035835;28;20222;-69
2021/12/08 11:53:21;;;;;;;10.85;4.68;;;;;;;;;;5035769;28;20644;-69
2021/12/08 11:55:50;;;;;;;8.63;3.55;;;;;;;;;;5036002;28;20186;-69
2021/12/08 11:58:23;;;;;;;9.80;4.23;;;;;;;;;;5035412;28;20234;-69
2021/12/08 12:00:52;;;;;;;7.40;3.45;;;;;;;;;;5034797;28;20468;-69
2021/12/08 12:03:20;;;;;;;11.07;4.70;;;;;;;;;;5034964;28;20207;-69
2021/12/08 12:05:48;;;;;;;3.63;2.97;;;;;;;;;;5035680;28;20236;-69
2021/12/08 12:08:17;;;;;;;5.83;3.37;;;;;;;;;;5035341;28;20235;-69
2021/12/08 12:10:45;;;;;;;15.35;4.63;;;;;;;;;;5034966;28;20527;-69
2021/12/08 12:13:14;;;;;;;5.93;3.55;;;;;;;;;;5034475;28;20257;-69
2021/12/08 12:15:44;;;;;;;11.80;3.38;;;;;;;;;;5034764;28;20677;-69
2021/12/08 12:18:12;;;;;;;7.05;3.95;;;;;;;;;;5034930;28;20198;-69
2021/12/08 12:20:40;;;;;;;7.13;3.00;;;;;;;;;;5035038;28;20234;-69
2021/12/08 12:23:14;;;;;;;9.77;3.90;;;;;;;;;;5034342;28;20291;-69
2021/12/08 12:25:48;;;;;;;7.80;3.17;;;;;;;;;;5035083;28;20514;-69
2021/12/08 12:28:43;;;;;;;9.43;3.90;;;;;;;;;;5034220;28;20463;-69
2021/12/08 12:31:19;;;;;;;8.15;4.20;;;;;;;;;;5034528;28;20271;-69
2021/12/08 12:33:47;;;;;;;8.20;3.00;;;;;;;;;;5034165;28;20230;-69
2021/12/08 12:36:23;;;;;;;4.53;2.80;;;;;;;;;;5033804;28;20496;-69
2021/12/08 12:38:51;;;;;;;8.20;2.67;;;;;;;;;;5034780;28;20269;-69
2021/12/08 12:41:27;;;;;;;6.80;3.47;;;;;;;;;;5034429;28;20455;-69
2021/12/08 12:44:13;;;;;;;8.95;2.63;;;;;;;;;;5034798;28;20433;-69
2021/12/08 12:47:10;;;;;;;5.70;2.10;;;;;;;;;;5034194;28;20229;-70
2021/12/08 12:49:38;;;;;;;9.43;2.50;;;;;;;;;;5034155;28;20203;-69
2021/12/08 12:52:06;;;;;;;5.60;2.60;;;;;;;;;;5033786;28;20298;-69
2021/12/08 12:54:33;;;;;;;4.97;2.90;;;;;;;;;;5033614;28;20308;-70
2021/12/08 12:57:03;;;;;;;4.60;2.55;;;;;;;;;;5033868;28;20201;-69
2021/12/08 12:59:41;;;;;;;3.95;2.60;;;;;;;;;;5034373;28;20199;-70
2021/12/08 13:02:09;;;;;;;6.20;2.67;;;;;;;;;;5033522;28;20680;-70
2021/12/08 13:04:51;;;;;;;4.38;2.55;;;;;;;;;;5033355;28;20445;-70
2021/12/08 13:07:18;;;;;;;5.30;2.15;;;;;;;;;;5033901;28;20230;-70
2021/12/08 13:09:47;;;;;;;7.95;2.78;;;;;;;;;;5033434;28;20234;-70
2021/12/08 13:12:16;;;;;;;6.30;3.90;;;;;;;;;;5033666;28;20531;-70
2021/12/08 13:14:45;;;;;;;12.15;3.25;;;;;;;;;;5033088;28;20258;-71
2021/12/08 13:17:18;;;;;;;5.65;2.50;;;;;;;;;;5033234;28;20257;-68
2021/12/08 13:19:46;;;;;;;8.32;2.40;;;;;;;;;;5034628;28;20201;-68
2021/12/08 13:22:32;;;;;;;3.97;2.60;;;;;;;;;;5033099;28;20205;-68
2021/12/08 13:25:01;;;;;;;6.28;3.08;;;;;;;;;;5033893;28;20485;-68
2021/12/08 13:27:30;;;;;;;8.00;2.77;;;;;;;;;;5033383;28;20252;-68
2021/12/08 13:30:10;;;;;;;4.75;3.17;;;;;;;;;;5033624;28;20444;-68
2021/12/08 13:32:45;;;;;;;6.85;3.30;;;;;;;;;;5032901;28;20188;-68
2021/12/08 13:35:13;;;;;;;3.80;2.88;;;;;;;;;;5032965;28;20667;-67
2021/12/08 13:37:56;;;;;;;5.90;2.83;;;;;;;;;;5033462;28;20273;-67
2021/12/08 13:40:41;;;;;;;10.07;3.20;;;;;;;;;;5033619;28;20438;-67
2021/12/08 13:43:09;;;;;;;7.47;2.83;;;;;;;;;;5033833;28;20738;-67
2021/12/08 13:45:43;;;;;;;6.03;2.45;;;;;;;;;;5033386;28;20459;-67
2021/12/08 13:48:11;;;;;;;13.15;4.15;;;;;;;;;;5033955;28;20281;-68
2021/12/08 13:50:38;;;;;;;6.93;2.40;;;;;;;;;;5034168;28;20198;-67
2021/12/08 13:53:10;;;;;;;17.02;3.40;;;;;;;;;;5032987;28;20215;-67
2021/12/08 13:55:40;;;;;;;4.13;2.93;;;;;;;;;;5032874;28;20184;-68
2021/12/08 13:58:12;;;;;;;7.78;3.03;;;;;;;;;;5032874;28;20530;-68
2021/12/08 14:00:40;;;;;;;7.35;3.05;;;;;;;;;;5033193;28;20198;-67
2021/12/08 14:03:15;;;;;;;12.48;3.55;;;;;;;;;;5034967;28;20205;-67
2021/12/08 14:05:46;;;;;;;6.25;2.75;;;;;;;;;;5037257;28;20195;-68
2021/12/08 14:08:17;;;;;;;7.07;2.70;;;;;;;;;;5037257;28;20209;-67
2021/12/08 14:10:45;;;;;;;31.13;17.13;;;;;;;;;;5037313;28;20190;-68
2021/12/08 14:13:14;;;;;;;13.95;6.43;;;;;;;;;;5036947;28;20686;-68
2021/12/08 14:15:44;;;;;;;5.95;3.67;;;;;;;;;;5036592;28;20202;-68
2021/12/08 14:18:17;;;;;;;10.38;3.22;;;;;;;;;;5036931;28;20234;-68
2021/12/08 14:20:45;;;;;;;5.80;2.53;;;;;;;;;;5037502;28;20273;-68
2021/12/08 14:23:12;;;;;;;5.43;2.90;;;;;;;;;;5036520;28;20324;-68
2021/12/08 14:25:41;;;;;;;6.68;2.75;;;;;;;;;;5036433;28;20199;-68
2021/12/08 14:28:27;;;;;;;6.88;3.45;;;;;;;;;;5036904;28;20195;-68
2021/12/08 14:30:55;;;;;;;7.90;3.13;;;;;;;;;;5036600;28;20281;-68
2021/12/08 14:33:25;;;;;;;3.78;2.85;;;;;;;;;;5036621;28;20218;-67
2021/12/08 14:35:55;;;;;;;5.97;3.70;;;;;;;;;;5036290;28;20313;-68
2021/12/08 14:38:23;;;;;;;10.40;3.17;;;;;;;;;;5036081;28;20285;-67
2021/12/08 14:40:50;;;;;;;8.82;4.63;;;;;;;;;;5036626;28;20199;-67
2021/12/08 14:43:27;;;;;;;4.30;3.00;;;;;;;;;;5036561;28;20208;-68
2021/12/08 14:45:55;;;;;;;14.07;2.95;;;;;;;;;;5035789;28;20665;-68
2021/12/08 14:48:22;;;;;;;8.13;2.92;;;;;;;;;;5036222;28;20194;-68
2021/12/08 14:50:51;;;;;;;8.50;2.90;;;;;;;;;;5035772;28;20237;-68
2021/12/08 14:53:18;;;;;;;10.25;3.03;;;;;;;;;;5035763;28;20292;-67
2021/12/08 14:55:46;;;;;;;6.90;3.75;;;;;;;;;;5035674;28;20206;-68
2021/12/08 14:58:13;;;;;;;6.43;3.55;;;;;;;;;;5036225;28;20596;-68
2021/12/08 15:00:42;;;;;;;22.38;4.22;;;;;;;;;;5036162;28;20220;-68
2021/12/08 15:03:11;;;;;;;4.97;2.47;;;;;;;;;;5035920;28;20599;-68
2021/12/08 15:05:39;;;;;;;11.27;2.80;;;;;;;;;;5036089;28;20199;-68
2021/12/08 15:08:12;;;;;;;5.82;2.70;;;;;;;;;;5036258;28;20202;-68
2021/12/08 15:10:41;;;;;;;9.88;3.10;;;;;;;;;;5036791;28;20218;-67
2021/12/08 15:13:12;;;;;;;7.45;2.45;;;;;;;;;;5035580;28;20249;-68
2021/12/08 15:15:40;;;;;;;7.05;3.22;;;;;;;;;;5035670;28;20198;-67
2021/12/08 15:18:09;;;;;;;10.43;4.22;;;;;;;;;;5035680;28;20329;-67
2021/12/08 15:20:41;;;;;;;7.88;3.78;;;;;;;;;;5035314;28;20238;-67
2021/12/08 15:23:12;;;;;;;9.63;2.92;;;;;;;;;;5035607;28;20187;-67
2021/12/08 15:25:41;;;;;;;8.43;3.08;;;;;;;;;;5035588;28;20293;-80